createdAt,value
2018-08-12T00:01:30.049Z,82.00
2018-08-12T00:04:00.277Z,81.90
2018-08-12T00:06:30.104Z,82.10
2018-08-12T00:08:59.876Z,82.40
2018-08-12T00:11:29.776Z,82.40
2018-08-12T00:13:59.886Z,82.50
2018-08-12T00:16:30.302Z,82.50
2018-08-12T00:18:59.948Z,82.50
2018-08-12T00:21:29.444Z,82.50
2018-08-12T00:23:59.820Z,82.60
2018-08-12T00:26:29.662Z,82.70
2018-08-12T00:28:59.267Z,82.70
2018-08-12T00:31:29.303Z,82.60
2018-08-12T00:33:59.492Z,83.40
2018-08-12T00:36:29.051Z,82.60
2018-08-12T00:38:58.430Z,82.70
2018-08-12T00:41:28.115Z,82.70
2018-08-12T00:43:57.888Z,82.80
2018-08-12T00:46:27.684Z,82.80
2018-08-12T00:48:57.173Z,83.70
2018-08-12T00:51:27.444Z,82.70
2018-08-12T00:53:57.280Z,82.70
2018-08-12T00:56:27.481Z,82.80
2018-08-12T00:58:57.103Z,82.80
2018-08-12T01:01:26.990Z,82.80
2018-08-12T01:03:56.595Z,82.80
2018-08-12T01:06:26.227Z,82.90
2018-08-12T01:08:56.065Z,82.80
2018-08-12T01:11:25.662Z,82.80
2018-08-12T01:13:55.323Z,82.90
2018-08-12T01:16:24.968Z,82.90
2018-08-12T01:18:55.447Z,83.00
2018-08-12T01:21:25.585Z,83.10
2018-08-12T01:23:55.074Z,83.10
2018-08-12T01:26:24.606Z,83.20
2018-08-12T01:28:54.308Z,83.20
2018-08-12T01:31:23.918Z,83.10
2018-08-12T01:33:53.740Z,83.80
2018-08-12T01:36:23.172Z,83.40
2018-08-12T01:38:53.096Z,83.30
2018-08-12T01:41:22.928Z,83.30
2018-08-12T01:43:52.456Z,84.10
2018-08-12T01:46:22.800Z,83.40
2018-08-12T01:48:53.364Z,83.40
2018-08-12T01:51:23.882Z,83.30
2018-08-12T01:53:53.562Z,83.30
2018-08-12T01:56:23.317Z,83.40
2018-08-12T01:58:52.744Z,82.80
2018-08-12T02:01:23.100Z,83.30
2018-08-12T02:03:52.705Z,83.30
2018-08-12T02:06:22.329Z,83.10
2018-08-12T02:08:52.470Z,83.10
2018-08-12T02:11:22.219Z,83.20
2018-08-12T02:13:51.889Z,83.20
2018-08-12T02:16:23.715Z,83.10
2018-08-12T02:18:53.411Z,83.30
2018-08-12T02:21:22.931Z,83.40
2018-08-12T02:23:52.542Z,83.20
2018-08-12T02:26:21.920Z,83.30
2018-08-12T02:28:51.681Z,83.30
2018-08-12T02:31:21.291Z,83.30
2018-08-12T02:33:51.580Z,83.30
2018-08-12T02:36:21.304Z,83.30
2018-08-12T02:38:51.098Z,83.40
2018-08-12T02:41:20.724Z,84.00
2018-08-12T02:43:51.246Z,83.30
2018-08-12T02:46:20.860Z,83.30
2018-08-12T02:48:50.438Z,83.20
2018-08-12T02:51:21.028Z,83.60
2018-08-12T02:53:50.472Z,83.20
2018-08-12T02:56:19.991Z,83.30
2018-08-12T02:58:50.732Z,83.40
2018-08-12T03:01:20.329Z,83.50
2018-08-12T03:03:49.984Z,83.50
2018-08-12T03:06:19.746Z,83.60
2018-08-12T03:08:49.608Z,83.60
2018-08-12T03:11:19.221Z,83.60
2018-08-12T03:13:49.547Z,83.70
2018-08-12T03:16:19.202Z,83.50
2018-08-12T03:18:48.707Z,83.50
2018-08-12T03:21:18.361Z,84.40
2018-08-12T03:23:48.921Z,83.60
2018-08-12T03:26:18.556Z,83.70
2018-08-12T03:28:48.218Z,83.80
2018-08-12T03:31:17.861Z,83.80
2018-08-12T03:33:48.489Z,83.70
2018-08-12T03:36:18.267Z,83.70
2018-08-12T03:38:47.959Z,83.80
2018-08-12T03:41:17.459Z,83.80
2018-08-12T03:43:47.437Z,83.90
2018-08-12T03:46:16.961Z,84.70
2018-08-12T03:48:46.713Z,83.90
2018-08-12T03:51:16.199Z,83.90
2018-08-12T03:53:46.010Z,83.80
2018-08-12T03:56:15.615Z,83.90
2018-08-12T03:58:45.246Z,84.50
2018-08-12T04:01:15.746Z,84.60
2018-08-12T04:03:45.530Z,83.80
2018-08-12T04:06:14.996Z,83.90
2018-08-12T04:08:45.339Z,83.90
2018-08-12T04:11:14.933Z,84.00
2018-08-12T04:13:44.376Z,84.00
2018-08-12T04:16:13.941Z,84.10
2018-08-12T04:18:43.623Z,84.20
2018-08-12T04:21:13.105Z,84.20
2018-08-12T04:23:43.616Z,84.20
2018-08-12T04:26:13.876Z,84.20
2018-08-12T04:28:43.345Z,84.20
2018-08-12T04:31:13.506Z,84.30
2018-08-12T04:33:43.544Z,84.30
2018-08-12T04:36:13.883Z,84.50
2018-08-12T04:38:43.463Z,84.50
2018-08-12T04:41:13.089Z,84.50
2018-08-12T04:43:42.652Z,84.70
2018-08-12T04:46:12.242Z,84.70
2018-08-12T04:48:41.757Z,84.70
2018-08-12T04:51:11.365Z,84.60
2018-08-12T04:53:41.073Z,84.70
2018-08-12T04:56:10.719Z,84.70
2018-08-12T04:58:40.826Z,84.70
2018-08-12T05:01:11.731Z,84.80
2018-08-12T05:03:41.302Z,84.70
2018-08-12T05:06:10.877Z,84.90
2018-08-12T05:08:40.483Z,84.90
2018-08-12T05:11:10.167Z,85.00
2018-08-12T05:13:40.290Z,85.00
2018-08-12T05:16:09.899Z,85.00
2018-08-12T05:18:40.032Z,85.10
2018-08-12T05:21:10.402Z,85.10
2018-08-12T05:23:40.553Z,85.10
2018-08-12T05:26:10.062Z,85.20
2018-08-12T05:28:39.579Z,85.20
2018-08-12T05:31:09.618Z,85.20
2018-08-12T05:33:39.312Z,85.30
2018-08-12T05:36:09.592Z,85.40
2018-08-12T05:38:39.365Z,85.40
2018-08-12T05:41:09.517Z,85.50
2018-08-12T05:43:39.282Z,85.60
2018-08-12T05:46:09.554Z,85.60
2018-08-12T05:48:39.257Z,85.70
2018-08-12T05:51:09.819Z,85.80
2018-08-12T05:53:39.362Z,85.80
2018-08-12T05:56:11.378Z,85.90
2018-08-12T05:58:40.934Z,86.00
2018-08-12T06:01:10.529Z,86.10
2018-08-12T06:03:40.098Z,86.10
2018-08-12T06:06:10.429Z,86.10
2018-08-12T06:08:40.603Z,86.20
2018-08-12T06:11:10.377Z,86.40
2018-08-12T06:13:41.153Z,87.00
2018-08-12T06:16:10.889Z,86.50
2018-08-12T06:18:40.545Z,86.50
2018-08-12T06:21:10.275Z,86.70
2018-08-12T06:23:40.230Z,86.90
2018-08-12T06:26:09.826Z,87.00
2018-08-12T06:28:39.885Z,87.00
2018-08-12T06:31:09.609Z,87.00
2018-08-12T06:33:39.218Z,87.10
2018-08-12T06:36:09.803Z,87.10
2018-08-12T06:38:40.600Z,88.00
2018-08-12T06:41:10.426Z,87.20
2018-08-12T06:43:41.421Z,87.50
2018-08-12T06:46:11.748Z,88.30
2018-08-12T06:48:42.612Z,87.40
2018-08-12T06:51:13.140Z,87.50
2018-08-12T06:53:42.858Z,86.90
2018-08-12T06:56:12.620Z,88.40
2018-08-12T06:58:42.954Z,87.80
2018-08-12T07:01:12.493Z,87.70
2018-08-12T07:03:42.486Z,87.70
2018-08-12T07:06:12.075Z,87.60
2018-08-12T07:08:41.529Z,87.60
2018-08-12T07:11:11.269Z,87.50
2018-08-12T07:13:41.872Z,87.40
2018-08-12T07:16:12.649Z,87.50
2018-08-12T07:18:43.000Z,87.50
2018-08-12T07:21:13.249Z,87.50
2018-08-12T07:23:42.806Z,87.40
2018-08-12T07:26:12.941Z,87.10
2018-08-12T07:28:43.435Z,86.80
2018-08-12T07:31:13.229Z,86.80
2018-08-12T07:33:43.431Z,86.80
2018-08-12T07:36:13.239Z,86.80
2018-08-12T07:38:43.012Z,86.70
2018-08-12T07:41:12.991Z,86.60
2018-08-12T07:43:44.466Z,86.50
2018-08-12T07:46:14.810Z,86.30
2018-08-12T07:48:44.479Z,86.10
2018-08-12T07:51:14.739Z,85.80
2018-08-12T07:53:46.686Z,85.50
2018-08-12T07:56:16.788Z,85.30
2018-08-12T07:58:48.540Z,85.00
2018-08-12T08:01:19.164Z,84.90
2018-08-12T08:03:53.856Z,84.50
2018-08-12T08:06:23.830Z,84.10
2018-08-12T08:08:53.580Z,83.90
2018-08-12T08:11:23.908Z,83.40
2018-08-12T08:13:53.616Z,83.10
2018-08-12T08:16:23.375Z,82.70
2018-08-12T08:18:53.724Z,82.40
2018-08-12T08:21:23.805Z,81.60
2018-08-12T08:23:54.183Z,81.70
2018-08-12T08:26:28.360Z,81.50
2018-08-12T08:28:59.575Z,81.00
2018-08-12T08:31:29.787Z,80.90
2018-08-12T08:33:59.777Z,80.40
2018-08-12T08:36:29.725Z,79.90
2018-08-12T08:39:01.641Z,79.60
2018-08-12T08:41:32.105Z,79.10
2018-08-12T08:44:03.212Z,78.90
2018-08-12T08:46:33.067Z,78.50
2018-08-12T08:49:03.589Z,77.90
2018-08-12T08:51:33.395Z,78.40
2018-08-12T08:54:15.729Z,77.20
2018-08-12T08:56:45.395Z,76.90
2018-08-12T08:59:15.699Z,76.80
2018-08-12T09:01:45.413Z,76.40
2018-08-12T09:04:15.130Z,76.20
2018-08-12T09:06:45.658Z,76.00
2018-08-12T09:09:16.511Z,76.50
2018-08-12T09:12:16.663Z,75.40
2018-08-12T09:14:50.803Z,74.90
2018-08-12T09:17:25.888Z,75.20
2018-08-12T09:19:55.611Z,74.70
2018-08-12T09:22:27.249Z,74.50
2018-08-12T09:24:59.182Z,74.20
2018-08-12T09:27:29.034Z,74.00
2018-08-12T09:30:17.186Z,73.70
2018-08-12T09:32:47.886Z,73.60
2018-08-12T09:35:18.386Z,73.50
2018-08-12T09:37:47.840Z,73.10
2018-08-12T09:40:18.782Z,72.80
2018-08-12T09:42:51.106Z,72.40
2018-08-12T09:45:27.129Z,72.20
2018-08-12T09:47:59.350Z,71.90
2018-08-12T09:50:30.143Z,71.50
2018-08-12T09:53:00.953Z,71.00
2018-08-12T09:55:31.028Z,70.30
2018-08-12T09:58:03.972Z,70.00
2018-08-12T10:00:45.446Z,70.50
2018-08-12T10:03:19.856Z,69.20
2018-08-12T10:05:50.208Z,69.00
2018-08-12T10:08:20.866Z,68.50
2018-08-12T10:10:50.820Z,68.20
2018-08-12T10:13:21.077Z,67.60
2018-08-12T10:15:55.015Z,67.00
2018-08-12T10:18:24.765Z,66.60
2018-08-12T10:20:54.459Z,66.20
2018-08-12T10:23:24.331Z,65.50
2018-08-12T10:25:54.511Z,64.70
2018-08-12T10:28:27.530Z,64.20
2018-08-12T10:30:57.308Z,63.70
2018-08-12T10:33:27.074Z,63.20
2018-08-12T10:35:56.623Z,62.60
2018-08-12T10:38:26.366Z,61.90
2018-08-12T10:40:55.776Z,61.40
2018-08-12T10:43:26.844Z,61.00
2018-08-12T10:45:56.312Z,60.40
2018-08-12T10:48:26.534Z,59.70
2018-08-12T10:50:57.792Z,59.10
2018-08-12T10:53:28.894Z,58.60
2018-08-12T10:55:59.508Z,58.20
2018-08-12T10:58:29.846Z,58.00
2018-08-12T11:01:00.557Z,57.80
2018-08-12T11:03:32.273Z,57.20
2018-08-12T11:06:03.355Z,56.80
2018-08-12T11:08:33.408Z,56.50
2018-08-12T11:11:04.559Z,56.20
2018-08-12T11:13:36.097Z,55.70
2018-08-12T11:16:06.013Z,55.40
2018-08-12T11:18:35.671Z,55.20
2018-08-12T11:21:05.315Z,54.80
2018-08-12T11:23:35.016Z,54.50
2018-08-12T11:26:05.604Z,54.40
2018-08-12T11:28:35.228Z,53.70
2018-08-12T11:31:05.856Z,53.20
2018-08-12T11:33:36.088Z,53.20
2018-08-12T11:36:05.945Z,53.00
2018-08-12T11:38:36.064Z,52.70
2018-08-12T11:41:05.666Z,52.40
2018-08-12T11:43:36.171Z,52.00
2018-08-12T11:46:06.298Z,51.90
2018-08-12T11:48:36.238Z,51.80
2018-08-12T11:51:06.177Z,51.50
2018-08-12T11:53:36.888Z,51.30
2018-08-12T11:56:07.207Z,50.90
2018-08-12T11:58:37.024Z,50.60
2018-08-12T12:01:08.090Z,50.30
2018-08-12T12:03:43.070Z,50.10
2018-08-12T12:06:13.506Z,49.70
2018-08-12T12:08:42.948Z,49.60
2018-08-12T12:11:13.946Z,49.40
2018-08-12T12:13:44.710Z,49.00
2018-08-12T12:16:16.303Z,49.00
2018-08-12T12:18:46.377Z,48.80
2018-08-12T12:21:16.677Z,49.00
2018-08-12T12:23:46.619Z,48.00
2018-08-12T12:26:18.853Z,47.90
2018-08-12T12:28:49.406Z,47.60
2018-08-12T12:31:20.060Z,47.50
2018-08-12T12:33:50.487Z,47.50
2018-08-12T12:36:20.449Z,47.20
2018-08-12T12:38:51.003Z,47.00
2018-08-12T12:41:21.233Z,46.90
2018-08-12T12:43:51.445Z,46.60
2018-08-12T12:46:21.275Z,46.40
2018-08-12T12:48:51.708Z,46.40
2018-08-12T12:51:21.903Z,46.60
2018-08-12T12:53:51.892Z,46.30
2018-08-12T12:56:22.197Z,46.00
2018-08-12T12:58:52.272Z,45.60
2018-08-12T13:01:23.304Z,45.70
2018-08-12T13:03:53.763Z,45.60
2018-08-12T13:06:23.812Z,45.40
2018-08-12T13:08:54.202Z,45.30
2018-08-12T13:11:24.154Z,45.10
2018-08-12T13:13:55.289Z,44.90
2018-08-12T13:16:25.818Z,44.40
2018-08-12T13:18:55.705Z,44.10
2018-08-12T13:21:25.992Z,43.80
2018-08-12T13:23:55.658Z,43.50
2018-08-12T13:26:25.328Z,43.30
2018-08-12T13:28:55.405Z,43.00
2018-08-12T13:31:25.513Z,42.80
2018-08-12T13:33:55.812Z,42.70
2018-08-12T13:36:25.477Z,42.60
2018-08-12T13:38:55.079Z,42.50
2018-08-12T13:41:25.592Z,42.20
2018-08-12T13:43:55.629Z,42.00
2018-08-12T13:46:25.808Z,42.00
2018-08-12T13:48:55.705Z,42.00
2018-08-12T13:51:25.335Z,42.00
2018-08-12T13:53:55.215Z,42.30
2018-08-12T13:56:24.951Z,41.40
2018-08-12T13:58:54.607Z,41.40
2018-08-12T14:01:24.223Z,41.20
2018-08-12T14:03:54.320Z,41.00
2018-08-12T14:06:24.829Z,41.00
2018-08-12T14:08:54.413Z,41.50
2018-08-12T14:11:24.183Z,40.80
2018-08-12T14:13:53.972Z,40.90
2018-08-12T14:16:25.248Z,40.90
2018-08-12T14:18:55.480Z,40.80
2018-08-12T14:21:25.191Z,40.50
2018-08-12T14:23:54.833Z,40.30
2018-08-12T14:26:24.439Z,40.20
2018-08-12T14:28:54.356Z,39.90
2018-08-12T14:31:24.204Z,39.70
2018-08-12T14:33:53.974Z,39.70
2018-08-12T14:36:23.861Z,39.40
2018-08-12T14:38:54.044Z,40.00
2018-08-12T14:41:23.768Z,39.30
2018-08-12T14:43:53.353Z,39.40
2018-08-12T14:46:23.945Z,39.50
2018-08-12T14:48:54.898Z,39.30
2018-08-12T14:51:24.882Z,39.30
2018-08-12T14:53:55.394Z,39.20
2018-08-12T14:56:24.959Z,38.80
2018-08-12T14:58:54.919Z,38.70
2018-08-12T15:01:25.248Z,38.70
2018-08-12T15:03:55.193Z,38.70
2018-08-12T15:06:25.474Z,38.70
2018-08-12T15:08:55.117Z,38.50
2018-08-12T15:11:24.826Z,38.60
2018-08-12T15:13:55.211Z,38.70
2018-08-12T15:16:24.812Z,38.60
2018-08-12T15:18:54.676Z,38.50
2018-08-12T15:21:24.781Z,38.30
2018-08-12T15:23:54.499Z,38.20
2018-08-12T15:26:24.359Z,38.00
2018-08-12T15:28:54.453Z,38.40
2018-08-12T15:31:24.121Z,37.40
2018-08-12T15:33:53.827Z,35.80
2018-08-12T15:36:23.593Z,34.70
2018-08-12T15:38:53.669Z,33.90
2018-08-12T15:41:23.447Z,33.50
2018-08-12T15:43:53.322Z,33.00
2018-08-12T15:46:23.705Z,33.10
2018-08-12T15:48:53.871Z,33.20
2018-08-12T15:51:23.683Z,32.90
2018-08-12T15:53:53.360Z,32.50
2018-08-12T15:56:23.307Z,33.10
2018-08-12T15:58:53.078Z,32.40
2018-08-12T16:01:22.836Z,32.10
2018-08-12T16:03:52.402Z,32.10
2018-08-12T16:06:22.256Z,31.80
2018-08-12T16:08:53.037Z,31.70
2018-08-12T16:11:23.550Z,31.60
2018-08-12T16:13:54.393Z,31.60
2018-08-12T16:16:24.234Z,31.50
2018-08-12T16:18:53.701Z,31.30
2018-08-12T16:21:23.796Z,31.30
2018-08-12T16:23:53.830Z,31.20
2018-08-12T16:26:23.988Z,31.20
2018-08-12T16:28:53.560Z,31.20
2018-08-12T16:31:23.491Z,30.30
2018-08-12T16:33:53.624Z,30.70
2018-08-12T16:36:23.374Z,30.40
2018-08-12T16:38:53.186Z,30.90
2018-08-12T16:41:22.820Z,31.20
2018-08-12T16:43:52.537Z,31.50
2018-08-12T16:46:22.566Z,31.50
2018-08-12T16:48:52.718Z,31.40
2018-08-12T16:51:23.023Z,31.60
2018-08-12T16:53:52.717Z,32.00
2018-08-12T16:56:22.464Z,32.90
2018-08-12T16:58:52.742Z,33.30
2018-08-12T17:01:22.571Z,33.90
2018-08-12T17:03:53.052Z,34.50
2018-08-12T17:06:23.203Z,35.00
2018-08-12T17:08:52.826Z,35.40
2018-08-12T17:11:23.663Z,35.70
2018-08-12T17:13:53.351Z,36.10
2018-08-12T17:16:23.100Z,36.50
2018-08-12T17:18:53.037Z,36.90
2018-08-12T17:21:23.534Z,37.20
2018-08-12T17:23:54.280Z,37.60
2018-08-12T17:26:25.340Z,38.00
2018-08-12T17:28:57.606Z,38.50
2018-08-12T17:31:30.211Z,39.00
2018-08-12T17:34:00.506Z,39.30
2018-08-12T17:36:30.888Z,39.60
2018-08-12T17:39:07.905Z,40.00
2018-08-12T17:41:37.624Z,40.30
2018-08-12T17:44:08.688Z,40.60
2018-08-12T17:46:38.717Z,41.30
2018-08-12T17:49:11.799Z,42.20
2018-08-12T17:52:04.119Z,43.10
2018-08-12T17:54:35.358Z,43.60
2018-08-12T17:57:07.854Z,44.00
2018-08-12T17:59:38.777Z,44.40
2018-08-12T18:02:16.150Z,45.20
2018-08-12T18:04:45.861Z,45.80
2018-08-12T18:07:15.670Z,46.40
2018-08-12T18:09:45.553Z,47.60
2018-08-12T18:12:15.516Z,47.40
2018-08-12T18:14:45.895Z,47.90
2018-08-12T18:17:15.522Z,48.20
2018-08-12T18:20:33.217Z,48.70
2018-08-12T18:23:11.137Z,49.10
2018-08-12T18:25:48.985Z,49.80
2018-08-12T18:28:18.794Z,50.20
2018-08-12T18:30:50.424Z,50.70
2018-08-12T18:33:27.466Z,51.10
2018-08-12T18:36:01.819Z,51.50
2018-08-12T18:38:40.189Z,51.80
2018-08-12T18:41:11.224Z,52.40
2018-08-12T18:43:42.307Z,52.90
2018-08-12T18:46:27.245Z,53.10
2018-08-12T18:48:56.692Z,53.50
2018-08-12T18:51:27.028Z,53.90
2018-08-12T18:53:57.716Z,54.30
2018-08-12T18:56:28.788Z,54.70
2018-08-12T18:58:59.562Z,55.10
2018-08-12T19:01:30.954Z,55.50
2018-08-12T19:04:01.623Z,55.70
2018-08-12T19:06:31.612Z,56.00
2018-08-12T19:09:02.036Z,56.00
2018-08-12T19:11:32.506Z,56.10
2018-08-12T19:14:03.850Z,56.30
2018-08-12T19:16:34.481Z,56.50
2018-08-12T19:19:04.887Z,56.70
2018-08-12T19:21:35.383Z,57.10
2018-08-12T19:24:07.781Z,57.30
2018-08-12T19:26:40.228Z,57.40
2018-08-12T19:29:12.361Z,57.60
2018-08-12T19:31:44.054Z,57.70
2018-08-12T19:34:31.362Z,57.90
2018-08-12T19:37:02.507Z,58.10
2018-08-12T19:39:40.136Z,58.30
2018-08-12T19:42:12.824Z,58.40
2018-08-12T19:44:45.801Z,58.50
2018-08-12T19:47:15.729Z,58.60
2018-08-12T19:49:46.388Z,58.60
2018-08-12T19:52:16.785Z,58.80
2018-08-12T19:54:47.376Z,58.80
2018-08-12T19:57:18.862Z,59.20
2018-08-12T19:59:48.386Z,59.50
2018-08-12T20:02:18.033Z,60.40
2018-08-12T20:04:47.481Z,59.80
2018-08-12T20:07:17.138Z,59.90
2018-08-12T20:09:47.319Z,61.10
2018-08-12T20:12:17.993Z,60.40
2018-08-12T20:14:47.989Z,61.50
2018-08-12T20:17:17.702Z,61.60
2018-08-12T20:19:47.387Z,61.10
2018-08-12T20:22:17.083Z,61.40
2018-08-12T20:24:46.560Z,61.80
2018-08-12T20:27:17.196Z,62.00
2018-08-12T20:29:47.794Z,62.20
2018-08-12T20:32:17.438Z,62.40
2018-08-12T20:34:47.400Z,62.40
2018-08-12T20:37:17.158Z,62.60
2018-08-12T20:39:47.541Z,62.90
2018-08-12T20:42:17.217Z,63.00
2018-08-12T20:44:47.504Z,63.20
2018-08-12T20:47:17.082Z,63.30
2018-08-12T20:49:46.845Z,63.60
2018-08-12T20:52:16.494Z,63.70
2018-08-12T20:54:46.278Z,64.00
2018-08-12T20:57:15.973Z,64.20
2018-08-12T20:59:46.699Z,64.50
2018-08-12T21:02:16.450Z,64.70
2018-08-12T21:04:46.073Z,64.90
2018-08-12T21:07:17.074Z,65.00
2018-08-12T21:09:47.252Z,65.20
2018-08-12T21:12:17.317Z,65.30
2018-08-12T21:14:48.141Z,65.40
2018-08-12T21:17:18.028Z,65.60
2018-08-12T21:19:48.023Z,65.80
2018-08-12T21:22:17.893Z,65.90
2018-08-12T21:24:48.993Z,66.00
2018-08-12T21:27:18.804Z,66.10
2018-08-12T21:29:50.751Z,66.30
2018-08-12T21:32:20.717Z,66.40
2018-08-12T21:34:50.553Z,66.70
2018-08-12T21:37:20.208Z,66.80
2018-08-12T21:39:49.886Z,67.00
2018-08-12T21:42:19.902Z,67.00
2018-08-12T21:44:50.409Z,67.10
2018-08-12T21:47:20.412Z,67.20
2018-08-12T21:49:50.915Z,67.30
2018-08-12T21:52:20.576Z,67.40
2018-08-12T21:54:50.224Z,67.40
2018-08-12T21:57:20.347Z,68.30
2018-08-12T21:59:50.345Z,67.50
2018-08-12T22:02:20.283Z,67.60
2018-08-12T22:04:50.091Z,67.70
2018-08-12T22:07:20.161Z,67.70
2018-08-12T22:09:50.135Z,67.70
2018-08-12T22:12:19.923Z,67.80
2018-08-12T22:14:49.520Z,67.80
2018-08-12T22:17:19.219Z,67.80
2018-08-12T22:19:48.761Z,67.90
2018-08-12T22:22:18.985Z,68.00
2018-08-12T22:24:49.498Z,68.10
2018-08-12T22:27:19.083Z,68.10
2018-08-12T22:29:49.405Z,68.10
2018-08-12T22:32:19.143Z,68.10
2018-08-12T22:34:48.649Z,68.20
2018-08-12T22:37:18.315Z,68.40
2018-08-12T22:39:47.847Z,68.40
2018-08-12T22:42:17.381Z,68.40
2018-08-12T22:44:46.921Z,68.50
2018-08-12T22:47:17.452Z,68.50
2018-08-12T22:49:47.201Z,68.50
2018-08-12T22:52:16.835Z,68.60
2018-08-12T22:54:46.956Z,68.70
2018-08-12T22:57:16.459Z,68.80
2018-08-12T22:59:46.586Z,68.80
2018-08-12T23:02:16.073Z,69.00
2018-08-12T23:04:45.787Z,69.00
2018-08-12T23:07:16.140Z,69.20
2018-08-12T23:09:46.186Z,69.30
2018-08-12T23:12:15.692Z,69.40
2018-08-12T23:14:45.512Z,69.50
2018-08-12T23:17:15.198Z,69.50
2018-08-12T23:19:44.916Z,69.60
2018-08-12T23:22:14.591Z,69.60
2018-08-12T23:24:44.147Z,69.70
2018-08-12T23:27:13.651Z,69.80
2018-08-12T23:29:43.216Z,69.80
2018-08-12T23:32:13.821Z,69.90
2018-08-12T23:34:44.060Z,70.00
2018-08-12T23:37:13.729Z,71.00
2018-08-12T23:39:43.443Z,70.20
2018-08-12T23:42:13.909Z,70.20
2018-08-12T23:44:43.570Z,70.30
2018-08-12T23:47:13.053Z,70.50
2018-08-12T23:49:42.900Z,70.50
2018-08-12T23:52:13.421Z,70.50
2018-08-12T23:54:43.320Z,70.60
2018-08-12T23:57:13.504Z,70.60
2018-08-12T23:59:44.608Z,70.60
